Time;durP1;ratioP1;P1;durP2;ratioP2;P2;SDS_P1;SDS_P2;PMS_P1;PMS_P2;Temp;Humidity;BMP_temperature;BMP_pressure;BME280_temperature;BME280_humidity;BME280_pressure;Samples;Min_cycle;Max_cycle;Signal;HPM_P1;HPM_P2
2023/06/30 00:02:02;;;;;;;0.10;0.10;;;;;;;13.73;99.00;98164.00;5004354;28;20053;-73
2023/06/30 00:04:30;;;;;;;0.20;0.20;;;;;;;13.69;98.67;98161.13;5006498;28;20429;-72
2023/06/30 00:06:56;;;;;;;0.20;0.20;;;;;;;13.70;99.01;98167.44;5005357;28;20052;-71
2023/06/30 00:09:23;;;;;;;0.10;0.10;;;;;;;13.69;98.84;98158.38;4994818;28;20523;-72
2023/06/30 00:11:50;;;;;;;0.10;0.10;;;;;;;13.71;99.59;98172.56;5015451;28;20065;-72
2023/06/30 00:14:17;;;;;;;0.10;0.10;;;;;;;13.74;99.28;98160.94;5013902;28;20060;-72
2023/06/30 00:16:43;;;;;;;0.10;0.10;;;;;;;13.77;98.71;98158.66;5011444;28;20053;-72
2023/06/30 00:19:11;;;;;;;0.20;0.20;;;;;;;13.80;98.74;98161.50;5015930;28;20060;-72
2023/06/30 00:21:41;;;;;;;0.10;0.10;;;;;;;13.84;98.49;98156.97;5007868;28;20074;-72
2023/06/30 00:24:08;;;;;;;0.10;0.10;;;;;;;13.86;98.56;98157.44;5008123;28;20073;-71
2023/06/30 00:26:34;;;;;;;0.10;0.10;;;;;;;13.88;98.38;98157.91;4996012;28;20075;-71
2023/06/30 00:29:01;;;;;;;0.10;0.10;;;;;;;13.85;98.13;98150.34;5020912;28;20053;-71
2023/06/30 00:31:29;;;;;;;0.10;0.10;;;;;;;13.89;98.16;98147.69;4992038;28;20137;-72
2023/06/30 00:33:55;;;;;;;0.20;0.20;;;;;;;13.92;97.93;98141.53;5018297;28;20155;-72
2023/06/30 00:36:23;;;;;;;0.20;0.20;;;;;;;13.98;97.80;98142.16;4969544;28;20050;-72
2023/06/30 00:38:54;;;;;;;0.20;0.20;;;;;;;14.02;97.41;98143.84;5018851;28;20050;-72
2023/06/30 00:41:21;;;;;;;0.17;0.17;;;;;;;14.14;97.55;98147.78;5004561;28;20065;-73
2023/06/30 00:43:47;;;;;;;0.20;0.20;;;;;;;14.15;96.66;98138.41;5018962;28;20059;-72
2023/06/30 00:46:17;;;;;;;0.20;0.20;;;;;;;14.14;96.17;98139.53;5032079;28;20054;-72
2023/06/30 00:48:44;;;;;;;0.20;0.20;;;;;;;14.17;96.02;98147.09;4981803;28;20452;-72
2023/06/30 00:51:13;;;;;;;0.10;0.10;;;;;;;14.19;95.82;98136.56;5012222;28;20559;-73
2023/06/30 00:53:41;;;;;;;0.20;0.20;;;;;;;14.15;95.83;98139.22;5003982;28;20062;-72
2023/06/30 00:56:07;;;;;;;0.20;0.20;;;;;;;14.17;95.87;98138.88;5004676;28;20047;-73
2023/06/30 00:58:34;;;;;;;0.20;0.20;;;;;;;14.18;95.76;98133.03;5004244;28;20057;-72
2023/06/30 01:01:06;;;;;;;0.20;0.20;;;;;;;14.21;96.15;98136.25;5005267;28;20061;-72
2023/06/30 01:03:45;;;;;;;0.20;0.20;;;;;;;14.22;95.82;98130.41;5014286;28;20052;-72
2023/06/30 01:06:20;;;;;;;0.20;0.20;;;;;;;14.25;95.76;98131.66;5003583;28;20459;-72
2023/06/30 01:08:54;;;;;;;0.20;0.20;;;;;;;14.25;95.05;98142.66;4994132;28;20542;-70
2023/06/30 01:11:21;;;;;;;0.25;0.20;;;;;;;14.23;95.10;98136.69;5020720;28;20045;-72
2023/06/30 01:13:48;;;;;;;0.30;0.20;;;;;;;14.22;94.99;98144.16;5023738;28;20049;-72
2023/06/30 01:16:16;;;;;;;0.20;0.20;;;;;;;14.24;94.77;98141.06;5009885;28;20099;-72
2023/06/30 01:18:47;;;;;;;0.20;0.20;;;;;;;14.22;95.08;98135.09;5022210;28;20045;-71
2023/06/30 01:21:15;;;;;;;0.10;0.10;;;;;;;14.22;94.81;98137.84;5007901;28;20085;-72
2023/06/30 01:23:49;;;;;;;0.20;0.20;;;;;;;14.21;95.19;98128.00;4987828;28;20073;-72
2023/06/30 01:26:19;;;;;;;0.13;0.13;;;;;;;14.23;95.14;98129.28;4999206;28;20179;-71
2023/06/30 01:28:47;;;;;;;0.20;0.20;;;;;;;14.25;94.71;98118.75;5011378;28;20059;-71
2023/06/30 01:31:14;;;;;;;0.20;0.20;;;;;;;14.23;94.54;98121.03;5013767;28;20046;-71
2023/06/30 01:33:41;;;;;;;0.20;0.20;;;;;;;14.23;94.84;98118.28;5005089;28;20068;-72
2023/06/30 01:36:08;;;;;;;0.20;0.20;;;;;;;14.21;95.00;98120.56;5005960;28;20048;-72
2023/06/30 01:38:35;;;;;;;0.10;0.10;;;;;;;14.20;95.22;98118.94;5007691;28;20509;-72
2023/06/30 01:41:02;;;;;;;0.20;0.20;;;;;;;14.23;95.20;98128.47;5020107;28;20046;-71
2023/06/30 01:43:30;;;;;;;0.20;0.20;;;;;;;14.24;94.56;98127.31;5023110;28;20107;-71
2023/06/30 01:45:57;;;;;;;0.20;0.20;;;;;;;14.15;94.87;98119.97;5019312;28;20053;-71
2023/06/30 01:48:24;;;;;;;0.20;0.20;;;;;;;14.17;95.05;98117.69;5008303;28;20053;-71
2023/06/30 01:50:51;;;;;;;0.20;0.20;;;;;;;14.21;94.86;98122.50;5017942;28;20045;-72
2023/06/30 01:53:17;;;;;;;0.20;0.20;;;;;;;14.17;94.98;98122.38;5026165;28;20068;-72
2023/06/30 01:55:48;;;;;;;0.20;0.20;;;;;;;14.15;94.95;98121.91;5001706;28;20313;-71
2023/06/30 01:58:14;;;;;;;0.20;0.20;;;;;;;14.20;95.29;98120.91;5021546;28;20053;-71
2023/06/30 02:00:42;;;;;;;0.20;0.20;;;;;;;14.17;95.58;98130.63;5007992;28;20056;-71
2023/06/30 02:03:08;;;;;;;0.10;0.10;;;;;;;14.17;95.74;98117.69;5020898;28;20053;-71
2023/06/30 02:05:34;;;;;;;0.13;0.13;;;;;;;14.15;95.42;98122.72;5022428;28;20103;-72
2023/06/30 02:08:01;;;;;;;0.20;0.20;;;;;;;14.12;95.40;98114.34;5024379;28;20107;-71
2023/06/30 02:10:27;;;;;;;0.28;0.20;;;;;;;14.08;95.39;98119.72;5009946;28;20045;-71
2023/06/30 02:12:54;;;;;;;0.20;0.20;;;;;;;14.04;95.56;98111.34;5004750;28;20622;-72
2023/06/30 02:15:21;;;;;;;0.10;0.10;;;;;;;14.11;95.96;98113.53;5020273;28;20050;-72
2023/06/30 02:17:48;;;;;;;0.20;0.20;;;;;;;14.17;95.83;98112.19;5007108;28;20072;-70
2023/06/30 02:20:14;;;;;;;;;;;;;;;14.16;95.70;98110.59;5016774;28;20513;-72
2023/06/30 02:22:41;;;;;;;0.17;0.17;;;;;;;14.23;95.39;98109.22;5012643;28;20383;-71
2023/06/30 02:25:10;;;;;;;0.10;0.10;;;;;;;14.31;94.96;98111.09;5015244;28;20260;-71
2023/06/30 02:27:36;;;;;;;0.10;0.10;;;;;;;14.30;94.70;98113.00;5015499;28;20476;-72
2023/06/30 02:30:05;;;;;;;0.20;0.20;;;;;;;14.24;94.53;98108.88;5022741;28;20100;-71
2023/06/30 02:32:37;;;;;;;0.20;0.20;;;;;;;14.16;94.14;98116.09;5018262;28;20049;-71
2023/06/30 02:35:07;;;;;;;0.20;0.20;;;;;;;14.17;94.56;98114.13;5010681;28;20049;-72
2023/06/30 02:37:33;;;;;;;0.20;0.20;;;;;;;14.22;94.74;98110.38;5010945;28;20060;-72
2023/06/30 02:39:59;;;;;;;0.20;0.20;;;;;;;14.25;94.85;98112.44;5015414;28;20069;-71
2023/06/30 02:42:25;;;;;;;0.20;0.20;;;;;;;14.23;94.90;98107.28;5003393;28;20516;-71
2023/06/30 02:44:51;;;;;;;0.20;0.20;;;;;;;14.22;94.66;98111.19;5001804;28;20052;-72
2023/06/30 02:47:18;;;;;;;0.20;0.20;;;;;;;14.20;94.86;98107.94;5021779;28;20054;-71
2023/06/30 02:49:44;;;;;;;0.20;0.20;;;;;;;14.24;94.60;98114.38;5021397;28;20050;-72
2023/06/30 02:52:12;;;;;;;0.20;0.20;;;;;;;14.27;94.47;98115.63;4994400;28;20069;-71
2023/06/30 02:54:39;;;;;;;0.20;0.20;;;;;;;14.29;94.96;98105.91;5013861;28;20579;-72
2023/06/30 02:57:05;;;;;;;0.20;0.20;;;;;;;14.29;94.48;98110.63;5001932;28;20046;-72
2023/06/30 02:59:32;;;;;;;0.20;0.20;;;;;;;14.31;94.54;98102.84;5010953;28;20058;-71
2023/06/30 03:01:59;;;;;;;0.20;0.20;;;;;;;14.33;94.96;98101.31;5006175;28;20508;-71
2023/06/30 03:04:26;;;;;;;0.20;0.20;;;;;;;14.39;94.69;98099.16;5021673;28;20072;-72
2023/06/30 03:06:52;;;;;;;0.20;0.20;;;;;;;14.47;95.13;98108.44;5009691;28;20144;-71
2023/06/30 03:09:20;;;;;;;0.20;0.20;;;;;;;14.53;94.29;98098.03;4975497;28;20050;-72
2023/06/30 03:11:46;;;;;;;0.20;0.20;;;;;;;14.61;93.70;98099.88;5000042;28;20108;-71
2023/06/30 03:14:13;;;;;;;0.20;0.20;;;;;;;14.63;93.47;98092.09;5013569;28;20546;-72
2023/06/30 03:16:44;;;;;;;0.20;0.20;;;;;;;14.66;93.25;98094.16;5022662;28;20046;-72
2023/06/30 03:19:11;;;;;;;0.20;0.20;;;;;;;14.67;93.07;98092.19;5030362;28;20523;-72
2023/06/30 03:21:38;;;;;;;0.20;0.20;;;;;;;14.71;92.82;98090.38;5000917;28;20513;-74
2023/06/30 03:24:04;;;;;;;0.20;0.20;;;;;;;14.76;93.10;98092.13;5018377;28;20045;-74
2023/06/30 03:26:32;;;;;;;0.20;0.20;;;;;;;14.72;92.45;98089.25;5005601;28;20129;-74
2023/06/30 03:29:00;;;;;;;0.20;0.20;;;;;;;14.69;92.24;98084.41;5024698;28;20148;-74
2023/06/30 03:31:26;;;;;;;0.20;0.20;;;;;;;14.65;92.27;98086.22;5039736;28;20057;-74
2023/06/30 03:33:53;;;;;;;0.20;0.20;;;;;;;14.64;92.86;98087.38;5015324;28;20076;-74
2023/06/30 03:36:19;;;;;;;0.20;0.20;;;;;;;14.68;92.14;98086.34;5005968;28;20060;-71
2023/06/30 03:38:45;;;;;;;0.20;0.20;;;;;;;14.71;92.35;98093.13;5019390;28;20053;-71
2023/06/30 03:41:12;;;;;;;0.20;0.20;;;;;;;14.69;92.37;98087.16;5010844;28;20053;-71
2023/06/30 03:43:40;;;;;;;0.25;0.25;;;;;;;14.74;92.45;98085.00;5009523;28;20046;-71
2023/06/30 03:46:09;;;;;;;0.20;0.20;;;;;;;14.83;92.34;98087.66;4988628;28;20056;-71
2023/06/30 03:48:35;;;;;;;0.20;0.20;;;;;;;14.83;92.11;98089.59;5021159;28;20080;-72
2023/06/30 03:51:02;;;;;;;0.20;0.20;;;;;;;14.92;91.52;98083.97;5019072;28;20343;-72
2023/06/30 03:53:28;;;;;;;0.20;0.20;;;;;;;15.05;91.13;98085.56;5016222;28;20049;-71
2023/06/30 03:55:54;;;;;;;0.20;0.20;;;;;;;15.17;90.45;98082.78;5016773;28;20139;-72
2023/06/30 03:58:20;;;;;;;0.20;0.20;;;;;;;15.26;90.33;98077.13;5008852;28;20315;-71
2023/06/30 04:00:48;;;;;;;0.20;0.20;;;;;;;15.29;90.00;98076.44;5022898;28;20065;-72
2023/06/30 04:03:14;;;;;;;0.20;0.20;;;;;;;15.36;89.47;98078.59;5016955;28;20600;-71
2023/06/30 04:05:40;;;;;;;0.20;0.20;;;;;;;15.34;88.57;98069.88;5011220;28;20069;-71
2023/06/30 04:08:07;;;;;;;0.30;0.30;;;;;;;15.37;88.78;98071.94;5015469;28;20068;-70
2023/06/30 04:10:33;;;;;;;0.20;0.20;;;;;;;15.56;88.30;98076.81;5002342;28;20245;-71
2023/06/30 04:12:59;;;;;;;0.20;0.20;;;;;;;15.73;87.71;98069.41;5016112;28;20465;-70
2023/06/30 04:15:25;;;;;;;0.20;0.20;;;;;;;15.82;87.11;98061.75;5008609;28;20037;-71
2023/06/30 04:17:53;;;;;;;0.30;0.30;;;;;;;15.96;86.39;98057.81;5008402;28;20091;-71
2023/06/30 04:20:19;;;;;;;0.20;0.20;;;;;;;16.10;86.12;98068.44;5009339;28;20056;-71
2023/06/30 04:22:45;;;;;;;0.20;0.20;;;;;;;16.26;85.21;98074.75;4991511;28;20123;-71
2023/06/30 04:25:11;;;;;;;0.20;0.20;;;;;;;16.30;84.95;98069.31;5026322;28;20091;-71
2023/06/30 04:27:38;;;;;;;0.20;0.20;;;;;;;16.33;84.13;98065.06;5016207;28;20048;-71
2023/06/30 04:30:05;;;;;;;0.30;0.30;;;;;;;16.32;83.46;98066.22;4983338;28;20064;-72
2023/06/30 04:32:32;;;;;;;0.20;0.20;;;;;;;16.29;83.70;98071.28;5006244;28;20319;-72
2023/06/30 04:35:00;;;;;;;0.28;0.28;;;;;;;16.27;83.43;98078.31;5022587;28;20622;-72
2023/06/30 04:37:29;;;;;;;0.20;0.20;;;;;;;16.29;83.65;98073.22;5024417;28;20052;-71
2023/06/30 04:39:56;;;;;;;0.20;0.20;;;;;;;16.22;83.45;98062.03;4999597;28;20049;-71
2023/06/30 04:42:22;;;;;;;0.20;0.20;;;;;;;16.21;83.39;98069.50;5012358;28;20061;-71
2023/06/30 04:44:48;;;;;;;0.20;0.20;;;;;;;16.26;83.73;98066.50;5013998;28;20076;-71
2023/06/30 04:47:18;;;;;;;0.25;0.25;;;;;;;16.28;83.32;98061.41;5006309;28;20210;-72
2023/06/30 04:49:44;;;;;;;0.20;0.20;;;;;;;16.36;83.87;98065.16;4999815;28;20533;-71
2023/06/30 04:52:13;;;;;;;0.20;0.20;;;;;;;16.49;82.28;98068.59;5014734;28;20133;-72
2023/06/30 04:54:39;;;;;;;0.20;0.20;;;;;;;16.64;82.26;98074.47;5011184;28;20067;-72
2023/06/30 04:57:05;;;;;;;0.20;0.20;;;;;;;16.79;82.49;98068.13;5014493;28;20104;-73
2023/06/30 04:59:32;;;;;;;0.20;0.20;;;;;;;16.83;80.69;98074.53;5025275;28;20038;-73
2023/06/30 05:02:00;;;;;;;0.20;0.20;;;;;;;16.70;80.75;98071.09;5014494;28;20100;-72
2023/06/30 05:04:26;;;;;;;0.20;0.20;;;;;;;16.68;80.82;98067.88;5018167;28;20259;-71
2023/06/30 05:06:53;;;;;;;0.20;0.20;;;;;;;16.69;81.39;98075.00;5016293;28;20053;-72
2023/06/30 05:09:22;;;;;;;0.25;0.25;;;;;;;16.85;81.01;98074.97;4998922;28;20624;-71
2023/06/30 05:11:48;;;;;;;0.30;0.30;;;;;;;16.91;80.36;98072.72;5014474;28;20429;-72
2023/06/30 05:14:15;;;;;;;0.30;0.30;;;;;;;16.97;79.93;98071.31;5008094;28;20053;-72
2023/06/30 05:16:41;;;;;;;0.30;0.30;;;;;;;16.97;79.96;98076.00;5008065;28;20045;-72
2023/06/30 05:19:07;;;;;;;0.30;0.30;;;;;;;16.95;79.47;98076.41;5020633;28;20060;-72
2023/06/30 05:21:33;;;;;;;0.20;0.20;;;;;;;16.89;79.60;98079.78;5023195;28;20539;-71
2023/06/30 05:23:59;;;;;;;0.30;0.30;;;;;;;16.85;79.73;98082.47;4996184;28;20053;-71
2023/06/30 05:26:27;;;;;;;0.30;0.30;;;;;;;16.79;79.88;98081.94;5016620;28;20053;-71
2023/06/30 05:28:53;;;;;;;;;;;;;;;16.77;80.07;98084.25;5015057;28;20046;-71
2023/06/30 05:31:19;;;;;;;0.20;0.20;;;;;;;16.63;80.25;98072.88;5008309;28;19925;-73
2023/06/30 05:33:45;;;;;;;0.25;0.25;;;;;;;16.48;80.43;98071.75;5010376;28;20049;-74
2023/06/30 05:36:11;;;;;;;0.20;0.20;;;;;;;16.45;81.89;98070.47;5002528;28;20049;-73
2023/06/30 05:38:38;;;;;;;0.20;0.20;;;;;;;16.54;81.08;98068.31;5007771;28;20502;-73
2023/06/30 05:41:04;;;;;;;0.30;0.30;;;;;;;16.67;81.31;98074.56;5020097;28;20056;-74
2023/06/30 05:43:31;;;;;;;0.30;0.30;;;;;;;16.88;79.92;98067.94;5023957;28;20304;-74
2023/06/30 05:45:57;;;;;;;0.30;0.30;;;;;;;17.08;79.28;98071.56;5014708;28;20143;-74
2023/06/30 05:48:24;;;;;;;0.30;0.30;;;;;;;17.18;78.55;98063.91;5008688;28;20053;-74
2023/06/30 05:50:50;;;;;;;0.30;0.30;;;;;;;17.26;78.45;98068.41;5015636;28;20049;-75
2023/06/30 05:53:16;;;;;;;0.30;0.30;;;;;;;17.22;77.98;98060.03;5021488;28;20050;-75
2023/06/30 05:55:42;;;;;;;0.30;0.30;;;;;;;17.31;77.61;98068.09;5023949;28;20045;-75
2023/06/30 05:58:08;;;;;;;0.30;0.30;;;;;;;17.36;77.67;98059.53;5023572;28;20405;-74
2023/06/30 06:00:36;;;;;;;0.30;0.30;;;;;;;17.47;76.80;98064.47;5023733;28;20103;-71
2023/06/30 06:03:02;;;;;;;0.30;0.30;;;;;;;17.43;76.71;98070.72;5021763;28;20041;-72
2023/06/30 06:05:28;;;;;;;0.30;0.30;;;;;;;17.49;76.72;98064.94;5024030;28;20092;-72
2023/06/30 06:07:55;;;;;;;0.30;0.30;;;;;;;17.66;76.42;98066.44;5025602;28;20049;-72
2023/06/30 06:10:21;;;;;;;0.30;0.30;;;;;;;17.82;75.72;98058.06;5019201;28;20050;-72
2023/06/30 06:12:54;;;;;;;0.30;0.30;;;;;;;17.95;76.02;98064.22;5009603;28;20050;-72
2023/06/30 06:15:20;;;;;;;0.30;0.30;;;;;;;17.96;75.02;98065.81;5010062;28;20057;-72
2023/06/30 06:17:47;;;;;;;0.30;0.30;;;;;;;17.89;74.73;98062.94;5009860;28;20110;-72
2023/06/30 06:20:14;;;;;;;0.30;0.30;;;;;;;17.85;74.77;98074.69;5009385;28;20536;-72
2023/06/30 06:22:40;;;;;;;0.30;0.30;;;;;;;17.85;74.63;98066.41;5010013;28;20049;-71
2023/06/30 06:25:07;;;;;;;0.30;0.30;;;;;;;17.86;74.86;98065.25;5011828;28;20045;-71
2023/06/30 06:27:35;;;;;;;0.30;0.30;;;;;;;17.84;74.71;98069.56;5020434;28;20164;-71
2023/06/30 06:30:01;;;;;;;0.30;0.30;;;;;;;17.78;74.48;98062.72;5027020;28;20065;-71
2023/06/30 06:32:29;;;;;;;0.30;0.30;;;;;;;17.88;74.72;98080.69;5026807;28;20080;-72
2023/06/30 06:34:56;;;;;;;0.30;0.30;;;;;;;17.81;74.71;98070.28;5008407;28;20053;-71
2023/06/30 06:37:23;;;;;;;0.30;0.30;;;;;;;17.62;75.29;98063.59;5025867;28;20077;-71
2023/06/30 06:39:49;;;;;;;0.30;0.30;;;;;;;17.43;75.90;98059.69;5025467;28;20231;-72
2023/06/30 06:42:15;;;;;;;0.30;0.30;;;;;;;17.44;76.28;98064.03;5031347;28;20065;-72
2023/06/30 06:44:41;;;;;;;0.30;0.30;;;;;;;17.37;76.01;98057.56;5011973;28;20107;-72
2023/06/30 06:47:44;;;;;;;0.30;0.30;;;;;;;17.36;75.95;98061.50;4996026;28;20065;-71
2023/06/30 06:50:12;;;;;;;0.30;0.30;;;;;;;17.35;75.72;98054.38;4975212;28;20049;-72
2023/06/30 06:52:38;;;;;;;0.30;0.30;;;;;;;17.34;76.57;98059.13;5008809;28;20054;-72
2023/06/30 06:55:05;;;;;;;0.20;0.20;;;;;;;17.30;76.19;98060.97;5010360;28;20149;-71
2023/06/30 06:57:32;;;;;;;0.30;0.30;;;;;;;17.21;76.41;98055.66;4994074;28;20049;-72
2023/06/30 06:59:59;;;;;;;0.20;0.20;;;;;;;17.23;76.95;98067.16;5027677;28;20041;-72
2023/06/30 07:02:25;;;;;;;0.20;0.20;;;;;;;17.24;77.02;98060.47;5026228;28;20509;-72
2023/06/30 07:04:51;;;;;;;0.20;0.20;;;;;;;17.29;77.11;98051.91;5027006;28;20152;-71
2023/06/30 07:07:19;;;;;;;0.28;0.28;;;;;;;17.34;76.22;98053.59;5029296;28;20119;-71
2023/06/30 07:09:45;;;;;;;0.30;0.30;;;;;;;17.43;76.19;98056.91;5013185;28;20144;-72
2023/06/30 07:12:11;;;;;;;0.30;0.30;;;;;;;17.53;75.92;98052.00;5029460;28;20077;-72
2023/06/30 07:14:37;;;;;;;0.20;0.20;;;;;;;17.61;75.28;98045.41;5028566;28;20119;-72
2023/06/30 07:17:04;;;;;;;0.30;0.30;;;;;;;17.58;75.33;98043.38;5029705;28;20053;-72
2023/06/30 07:19:30;;;;;;;0.30;0.30;;;;;;;17.63;75.52;98050.59;5027306;28;20049;-72
2023/06/30 07:21:57;;;;;;;0.30;0.30;;;;;;;17.68;75.61;98047.53;5029202;28;20049;-71
2023/06/30 07:24:24;;;;;;;0.30;0.30;;;;;;;17.84;75.37;98050.22;5028264;28;20061;-71
2023/06/30 07:26:50;;;;;;;0.30;0.30;;;;;;;17.90;74.72;98045.19;5026491;28;20137;-71
2023/06/30 07:29:16;;;;;;;0.30;0.30;;;;;;;18.06;73.79;98040.38;5026050;28;20052;-71
2023/06/30 07:31:43;;;;;;;0.30;0.30;;;;;;;18.18;73.16;98035.81;4993039;28;20420;-71
2023/06/30 07:34:09;;;;;;;0.30;0.30;;;;;;;18.51;72.32;98040.72;5027687;28;20096;-71
2023/06/30 07:36:36;;;;;;;0.30;0.30;;;;;;;18.79;70.87;98039.56;5026603;28;20072;-71
2023/06/30 07:39:02;;;;;;;0.30;0.30;;;;;;;18.83;69.96;98045.94;5027211;28;20088;-72
2023/06/30 07:41:34;;;;;;;0.30;0.30;;;;;;;18.71;70.41;98038.66;5026571;28;20045;-72
2023/06/30 07:44:01;;;;;;;0.30;0.30;;;;;;;18.57;70.98;98038.44;5025704;28;20046;-72
2023/06/30 07:46:28;;;;;;;0.30;0.30;;;;;;;18.64;70.61;98040.50;5028521;28;20075;-72
2023/06/30 07:48:54;;;;;;;0.30;0.30;;;;;;;18.74;70.01;98042.66;5030022;28;20139;-72
2023/06/30 07:51:20;;;;;;;0.30;0.30;;;;;;;18.83;70.24;98042.38;5030204;28;20056;-72
2023/06/30 07:53:47;;;;;;;0.30;0.30;;;;;;;18.93;69.84;98044.50;5027738;28;20455;-72
2023/06/30 07:56:13;;;;;;;0.30;0.30;;;;;;;19.05;68.76;98031.63;5028169;28;20045;-72
2023/06/30 07:58:41;;;;;;;0.30;0.30;;;;;;;19.09;69.34;98040.78;5027364;28;20041;-71
2023/06/30 08:01:07;;;;;;;0.30;0.30;;;;;;;19.17;68.47;98028.63;5011177;28;20052;-72
2023/06/30 08:03:33;;;;;;;0.30;0.30;;;;;;;19.31;68.21;98035.53;5029777;28;20277;-72
2023/06/30 08:06:00;;;;;;;0.30;0.30;;;;;;;19.34;67.86;98026.47;5028084;28;20068;-72
2023/06/30 08:08:26;;;;;;;0.30;0.30;;;;;;;19.44;66.63;98025.00;5027348;28;20512;-73
2023/06/30 08:10:52;;;;;;;0.30;0.30;;;;;;;19.58;66.31;98029.88;5029186;28;20140;-72
2023/06/30 08:13:18;;;;;;;0.40;0.40;;;;;;;19.85;64.94;98030.59;5028681;28;20072;-71
2023/06/30 08:15:46;;;;;;;0.30;0.30;;;;;;;20.08;64.18;98024.09;5028873;28;20041;-74
2023/06/30 08:18:12;;;;;;;0.40;0.40;;;;;;;20.29;62.61;98011.59;5030413;28;20049;-74
2023/06/30 08:20:39;;;;;;;0.40;0.40;;;;;;;20.48;61.66;98021.66;5029518;28;20566;-73
2023/06/30 08:23:05;;;;;;;0.30;0.30;;;;;;;20.66;61.49;98019.00;5028169;28;20077;-73
2023/06/30 08:25:32;;;;;;;0.30;0.30;;;;;;;20.80;60.69;98012.75;5028432;28;20131;-74
2023/06/30 08:27:58;;;;;;;0.30;0.30;;;;;;;20.69;60.32;98005.16;4994026;28;20072;-73
2023/06/30 08:30:24;;;;;;;0.30;0.30;;;;;;;20.60;61.52;98009.44;5028487;28;20045;-74
2023/06/30 08:32:54;;;;;;;0.30;0.30;;;;;;;20.44;61.07;98002.19;5028103;28;20050;-73
2023/06/30 08:35:20;;;;;;;0.30;0.30;;;;;;;20.32;61.61;97996.97;5028536;28;20046;-73
2023/06/30 08:37:46;;;;;;;0.30;0.30;;;;;;;20.26;61.38;98000.06;5011989;28;20045;-73
2023/06/30 08:40:13;;;;;;;0.30;0.30;;;;;;;20.24;61.96;98002.44;5028969;28;20111;-73
2023/06/30 08:42:45;;;;;;;0.30;0.30;;;;;;;20.14;62.54;97997.63;5030133;28;20053;-74
2023/06/30 08:45:13;;;;;;;0.52;0.35;;;;;;;20.06;63.31;98004.28;5029537;28;20488;-73
2023/06/30 08:47:40;;;;;;;0.20;0.20;;;;;;;19.68;65.51;97995.94;5027760;28;20136;-73
2023/06/30 08:50:09;;;;;;;0.30;0.30;;;;;;;19.28;67.89;98009.38;5029225;28;20053;-73
2023/06/30 08:52:35;;;;;;;0.30;0.30;;;;;;;18.84;69.85;98011.53;5027500;28;20057;-74
2023/06/30 08:55:02;;;;;;;0.30;0.30;;;;;;;18.56;72.54;98012.72;5027311;28;20061;-73
2023/06/30 08:57:32;;;;;;;0.30;0.30;;;;;;;18.52;73.55;98011.88;5027823;28;20073;-73
2023/06/30 08:59:58;;;;;;;0.30;0.30;;;;;;;18.56;75.91;98009.16;5028277;28;20136;-73
2023/06/30 09:02:26;;;;;;;0.30;0.30;;;;;;;18.61;78.53;98000.53;5029248;28;20053;-73
2023/06/30 09:04:53;;;;;;;0.30;0.30;;;;;;;18.66;78.52;98002.19;5027239;28;20049;-73
2023/06/30 09:07:23;;;;;;;;;;;;;;;18.69;77.90;98004.19;5028612;28;20049;-73
2023/06/30 09:09:53;;;;;;;0.30;0.30;;;;;;;18.79;77.00;98000.81;5010292;28;19932;-73
2023/06/30 09:12:20;;;;;;;0.30;0.30;;;;;;;18.93;75.84;98002.94;5027896;28;20449;-73
2023/06/30 09:14:48;;;;;;;0.30;0.30;;;;;;;19.04;75.13;98003.13;5027139;28;20042;-73
2023/06/30 09:17:15;;;;;;;0.30;0.30;;;;;;;19.08;74.60;98006.75;5028351;28;20037;-73
2023/06/30 09:19:41;;;;;;;0.20;0.20;;;;;;;18.98;73.86;98002.66;5028808;28;20049;-73
2023/06/30 09:22:09;;;;;;;0.20;0.20;;;;;;;18.69;74.26;98006.97;5028145;28;20080;-73
2023/06/30 09:24:37;;;;;;;0.20;0.20;;;;;;;18.33;75.25;98015.50;5028531;28;20451;-72
2023/06/30 09:27:04;;;;;;;0.20;0.20;;;;;;;17.93;77.55;98014.81;5028229;28;20045;-73
2023/06/30 09:29:33;;;;;;;0.22;0.22;;;;;;;17.63;79.56;98015.47;5026532;28;20049;-73
2023/06/30 09:32:01;;;;;;;0.28;0.28;;;;;;;17.46;82.01;98013.16;5025863;28;20096;-73
2023/06/30 09:34:29;;;;;;;0.30;0.30;;;;;;;17.43;82.95;98014.69;5026083;28;20057;-73
2023/06/30 09:36:55;;;;;;;0.30;0.30;;;;;;;17.46;81.95;98013.16;5026359;28;20056;-72
2023/06/30 09:39:23;;;;;;;0.30;0.30;;;;;;;17.52;81.76;98023.53;5026225;28;20064;-73
2023/06/30 09:41:51;;;;;;;0.30;0.30;;;;;;;17.74;82.03;98025.91;5026070;28;20052;-73
2023/06/30 09:44:22;;;;;;;0.30;0.30;;;;;;;17.93;80.46;98025.09;5026310;28;20053;-73
2023/06/30 09:46:50;;;;;;;0.30;0.30;;;;;;;18.03;79.34;98032.00;5027570;28;20057;-71
2023/06/30 09:49:26;;;;;;;0.30;0.30;;;;;;;18.05;78.96;98024.94;5027474;28;20045;-71
2023/06/30 09:51:55;;;;;;;0.30;0.30;;;;;;;18.00;79.40;98027.97;5028237;28;20700;-71
2023/06/30 09:54:21;;;;;;;0.30;0.30;;;;;;;18.03;80.22;98020.94;5027875;28;20061;-71
2023/06/30 09:56:47;;;;;;;0.30;0.30;;;;;;;18.27;80.27;98015.06;5027411;28;20505;-71
2023/06/30 09:59:15;;;;;;;0.30;0.30;;;;;;;18.60;78.73;98006.47;5026588;28;20599;-71
2023/06/30 10:01:41;;;;;;;0.40;0.40;;;;;;;19.07;76.74;97998.81;5026037;28;20053;-71
2023/06/30 10:04:07;;;;;;;0.40;0.40;;;;;;;19.65;74.06;97997.50;5026976;28;20421;-71
2023/06/30 10:06:36;;;;;;;0.40;0.40;;;;;;;20.21;71.58;97991.31;5028584;28;20050;-71
2023/06/30 10:09:04;;;;;;;0.30;0.30;;;;;;;20.62;69.54;97990.44;5026881;28;20512;-72
2023/06/30 10:11:32;;;;;;;0.40;0.40;;;;;;;20.91;69.26;97990.63;5027589;28;20051;-73
2023/06/30 10:13:59;;;;;;;0.40;0.40;;;;;;;21.43;66.39;97984.09;5028582;28;20052;-73
2023/06/30 10:16:29;;;;;;;0.50;0.50;;;;;;;22.06;62.82;97994.97;5031808;28;20077;-73
2023/06/30 10:18:58;;;;;;;0.30;0.30;;;;;;;22.24;61.01;97989.41;5031480;28;20099;-73
2023/06/30 10:21:24;;;;;;;0.30;0.30;;;;;;;21.78;61.43;97991.78;5030878;28;20144;-73
2023/06/30 10:23:50;;;;;;;0.30;0.30;;;;;;;21.28;62.12;97986.84;5029524;28;20064;-73
2023/06/30 10:26:19;;;;;;;0.20;0.20;;;;;;;20.67;63.34;97985.28;4997652;28;20077;-73
2023/06/30 10:28:47;;;;;;;0.30;0.30;;;;;;;20.16;65.08;97986.94;5030937;28;20056;-73
2023/06/30 10:31:13;;;;;;;0.30;0.30;;;;;;;19.60;66.22;97980.44;5032571;28;20049;-72
2023/06/30 10:33:41;;;;;;;0.20;0.20;;;;;;;19.08;68.26;97986.56;5015168;28;20508;-72
2023/06/30 10:36:08;;;;;;;0.20;0.20;;;;;;;18.58;70.35;97992.97;5031326;28;20046;-73
2023/06/30 10:38:35;;;;;;;0.20;0.20;;;;;;;18.27;71.99;97983.81;5032107;28;20041;-73
2023/06/30 10:41:14;;;;;;;;;;;;;;;18.02;74.11;97994.44;5032438;28;20515;-73
2023/06/30 10:44:06;;;;;;;0.30;0.30;;;;;;;17.50;80.60;98000.22;5029615;28;20387;-71
2023/06/30 10:46:52;;;;;;;0.70;0.45;;;;;;;16.62;88.86;98002.31;5032182;28;20073;-74
2023/06/30 10:49:25;;;;;;;0.40;0.40;;;;;;;15.79;95.78;98020.34;5012886;28;20069;-74
2023/06/30 10:51:52;;;;;;;0.30;0.30;;;;;;;14.91;100.00;98025.41;5030775;28;20531;-72
2023/06/30 10:54:23;;;;;;;0.38;0.38;;;;;;;14.41;100.00;97995.16;5013934;28;20064;-72
2023/06/30 10:56:50;;;;;;;0.28;0.28;;;;;;;13.91;100.00;97988.84;5032410;28;20429;-74
2023/06/30 10:59:18;;;;;;;;;;;;;;;13.46;100.00;97977.53;5031405;28;20052;-73
2023/06/30 11:02:11;;;;;;;0.20;0.20;;;;;;;13.36;100.00;97980.66;5030268;28;20385;-74
2023/06/30 11:04:40;;;;;;;0.20;0.20;;;;;;;13.25;100.00;97987.69;5028448;28;20053;-74
2023/06/30 11:07:07;;;;;;;0.20;0.20;;;;;;;13.28;100.00;97995.28;5029548;28;20632;-75
2023/06/30 11:09:52;;;;;;;;;;;;;;;13.53;100.00;98003.63;4677358;28;10000428;-75
2023/06/30 11:12:20;;;;;;;0.10;0.10;;;;;;;13.82;100.00;98002.69;5025982;28;19977;-75
2023/06/30 11:14:52;;;;;;;0.20;0.20;;;;;;;13.85;100.00;98006.69;5026190;28;20053;-75
2023/06/30 11:17:18;;;;;;;0.20;0.20;;;;;;;13.85;100.00;98009.41;5026259;28;20056;-76
2023/06/30 11:19:59;;;;;;;0.20;0.20;;;;;;;13.84;100.00;97994.91;5026196;28;20045;-76
2023/06/30 11:22:32;;;;;;;0.20;0.20;;;;;;;14.04;100.00;98015.16;5025057;28;20045;-75
2023/06/30 11:25:03;;;;;;;0.20;0.20;;;;;;;14.23;100.00;98008.34;5023453;28;20725;-76
2023/06/30 11:27:31;;;;;;;0.20;0.20;;;;;;;14.30;100.00;98007.78;5026509;28;20169;-76
2023/06/30 11:30:01;;;;;;;0.20;0.20;;;;;;;14.31;100.00;98001.91;5025228;28;20053;-76
2023/06/30 11:32:29;;;;;;;0.20;0.20;;;;;;;14.27;100.00;97997.44;5008212;28;20080;-76
2023/06/30 11:34:58;;;;;;;0.20;0.20;;;;;;;14.19;100.00;97993.66;5024280;28;20060;-75
2023/06/30 11:37:24;;;;;;;0.20;0.20;;;;;;;14.24;100.00;97987.94;5010235;28;20061;-76